Time,TemperatureF,DewpointF,PressureIn,WindDirection,WindDirectionDegrees,WindSpeedMPH,WindSpeedGustMPH,Humidity,HourlyPrecipIn,Conditions,Clouds,dailyrainin,SoftwareType,DateUTC
2013-03-04 00:17:00,32.7,23.3,29.66,SSE,157,0.0,12.1,68,0.00,,,0.00,open2300-1.11,2013-03-04 06:17:00,
2013-03-04 01:17:00,32.2,22.4,29.64,SSE,157,0.0,6.7,67,0.00,,,0.00,open2300-1.11,2013-03-04 07:17:00,
2013-03-04 02:17:00,32.2,22.8,29.66,ESE,112,1.3,9.2,68,0.00,,,0.00,open2300-1.11,2013-03-04 08:17:00,
2013-03-04 03:17:00,32.4,23.3,29.63,ESE,112,3.6,5.1,69,0.00,,,0.00,open2300-1.11,2013-03-04 09:17:00,
2013-03-04 04:17:00,32.2,23.2,29.62,SE,135,0.0,7.6,69,0.00,,,0.00,open2300-1.11,2013-03-04 10:17:00,
2013-03-04 05:17:00,31.6,22.6,29.64,ENE,67,0.0,5.6,69,0.00,,,0.00,open2300-1.11,2013-03-04 11:17:00,
2013-03-04 06:17:00,30.7,22.1,29.65,ENE,67,0.0,1.3,70,0.00,,,0.00,open2300-1.11,2013-03-04 12:17:00,
2013-03-04 07:17:00,30.4,22.1,29.65,ESE,112,0.0,0.0,71,0.00,,,0.00,open2300-1.11,2013-03-04 13:17:00,
2013-03-04 08:17:00,32.7,24.3,29.68,ESE,112,0.0,4.7,71,0.00,,,0.00,open2300-1.11,2013-03-04 14:17:00,
2013-03-04 09:17:00,37.6,27.8,29.70,SE,135,0.2,2.5,68,0.00,,,0.00,open2300-1.11,2013-03-04 15:17:00,
2013-03-04 10:17:00,41.4,28.5,29.70,WNW,292,0.0,8.3,60,0.00,,,0.00,open2300-1.11,2013-03-04 16:17:00,
2013-03-04 11:17:00,40.8,28.4,29.73,NW,315,6.7,10.5,61,0.00,,,0.00,open2300-1.11,2013-03-04 17:17:00,
2013-03-04 12:17:00,38.5,27.3,29.75,NNW,337,6.3,9.8,64,0.00,,,0.00,open2300-1.11,2013-03-04 18:17:00,
2013-03-04 13:17:00,38.1,27.3,29.76,North,0,5.1,8.5,65,0.00,,,0.00,open2300-1.11,2013-03-04 19:17:00,
2013-03-04 14:17:00,38.7,28.2,29.76,NW,315,6.0,13.6,66,0.00,,,0.00,open2300-1.11,2013-03-04 20:17:00,
2013-03-04 15:17:00,38.5,28.4,29.76,NNE,22,5.1,12.3,67,0.00,,,0.00,open2300-1.11,2013-03-04 21:17:00,
2013-03-04 16:17:00,39.9,28.6,29.78,North,0,5.4,10.5,64,0.00,,,0.00,open2300-1.11,2013-03-04 22:17:00,
2013-03-04 17:17:00,38.5,28.0,29.86,North,0,5.8,9.6,66,0.00,,,0.00,open2300-1.11,2013-03-04 23:17:00,
2013-03-04 18:17:00,37.9,28.3,29.89,NNE,22,0.0,10.5,68,0.00,,,0.00,open2300-1.11,2013-03-05 00:17:00,
2013-03-04 19:17:00,37.0,27.8,29.95,NW,315,5.1,8.5,69,0.00,,,0.00,open2300-1.11,2013-03-05 01:17:00,
2013-03-04 20:17:00,34.0,26.5,29.96,NNE,22,0.0,9.6,74,0.00,,,0.00,open2300-1.11,2013-03-05 02:17:00,
2013-03-04 21:17:00,33.1,26.9,29.99,NNW,337,0.0,6.9,78,0.00,,,0.00,open2300-1.11,2013-03-05 03:17:00,
2013-03-04 22:17:00,32.9,27.1,30.00,NW,315,1.6,2.5,79,0.00,,,0.00,open2300-1.11,2013-03-05 04:17:00,
2013-03-04 23:17:00,32.7,27.5,30.03,WNW,292,2.5,8.1,81,0.00,,,0.00,open2300-1.11,2013-03-05 05:17:00,